Time;durP1;ratioP1;P1;durP2;ratioP2;P2;SDS_P1;SDS_P2;PMS_P1;PMS_P2;Temp;Humidity;BMP_temperature;BMP_pressure;BME280_temperature;BME280_humidity;BME280_pressure;Samples;Min_cycle;Max_cycle;Signal;HPM_P1;HPM_P2
2021/12/19 00:09:37;;;;;;;20.95;18.23;;;;;;;-141.48;100.00;69781.59;5239075;28;20039;-62
2021/12/19 00:12:08;;;;;;;21.83;19.50;;;;;;;-141.48;100.00;69781.59;5250105;28;20024;-62
2021/12/19 00:14:39;;;;;;;21.95;19.00;;;;;;;-141.48;100.00;69781.59;5249672;28;20020;-62
2021/12/19 00:17:09;;;;;;;20.10;18.25;;;;;;;-141.48;100.00;69781.59;5250027;28;20031;-62
2021/12/19 00:19:40;;;;;;;18.13;16.38;;;;;;;-141.48;100.00;69781.59;5268033;28;20019;-61
2021/12/19 00:22:10;;;;;;;20.08;17.75;;;;;;;-141.48;100.00;69781.59;5249897;28;20045;-60
2021/12/19 00:24:41;;;;;;;22.80;20.48;;;;;;;-141.48;100.00;69781.59;5249377;28;20479;-62
2021/12/19 00:27:11;;;;;;;19.58;17.63;;;;;;;-141.48;100.00;69781.59;5250042;28;20165;-63
2021/12/19 00:29:42;;;;;;;19.92;17.80;;;;;;;-141.48;100.00;69781.59;5249980;28;20052;-62
2021/12/19 00:32:12;;;;;;;22.73;20.40;;;;;;;-141.48;100.00;69781.59;5249676;28;20024;-61
2021/12/19 00:34:43;;;;;;;21.95;19.85;;;;;;;-141.48;100.00;69781.59;5249635;28;20027;-62
2021/12/19 00:37:13;;;;;;;19.98;17.98;;;;;;;-141.48;100.00;69781.59;5249373;28;20035;-62
2021/12/19 00:39:44;;;;;;;16.40;14.85;;;;;;;-141.48;100.00;69781.59;5249420;28;20027;-62
2021/12/19 00:42:37;;;;;;;19.50;17.75;;;;;;;-141.48;100.00;69781.59;5249680;28;20491;-62
2021/12/19 00:45:20;;;;;;;21.30;17.35;;;;;;;-141.48;100.00;69781.59;5249729;28;20173;-62
2021/12/19 00:47:50;;;;;;;23.10;17.98;;;;;;;-141.48;100.00;69781.59;5249763;28;20527;-61
2021/12/19 00:50:21;;;;;;;20.73;18.65;;;;;;;-141.48;100.00;69781.59;5249800;28;20036;-61
2021/12/19 00:52:52;;;;;;;20.48;18.55;;;;;;;-141.48;100.00;69781.59;5249622;28;20016;-61
2021/12/19 00:55:25;;;;;;;21.50;19.35;;;;;;;-141.48;100.00;69781.59;5249647;28;20045;-61
2021/12/19 00:57:56;;;;;;;22.52;20.30;;;;;;;-141.48;100.00;69781.59;5249880;28;20031;-62
2021/12/19 01:00:29;;;;;;;19.92;18.02;;;;;;;-141.48;100.00;69781.59;5249425;28;20396;-62
2021/12/19 01:03:01;;;;;;;19.15;17.25;;;;;;;-141.48;100.00;69781.59;5249186;28;20121;-61
2021/12/19 01:05:35;;;;;;;20.98;18.83;;;;;;;-141.48;100.00;69781.59;5249272;28;20396;-62
2021/12/19 01:08:06;;;;;;;23.95;21.65;;;;;;;-141.48;100.00;69781.59;5249579;28;20020;-62
2021/12/19 01:10:36;;;;;;;22.67;20.40;;;;;;;-141.48;100.00;69781.59;5249613;28;20384;-61
2021/12/19 01:13:07;;;;;;;22.67;20.40;;;;;;;-141.48;100.00;69781.59;5249287;28;20034;-61
2021/12/19 01:15:38;;;;;;;18.77;17.17;;;;;;;-141.48;100.00;69781.59;5249321;28;20507;-62
2021/12/19 01:18:09;;;;;;;20.67;18.73;;;;;;;-141.48;100.00;69781.59;5249441;28;20107;-62
2021/12/19 01:20:41;;;;;;;19.85;17.95;;;;;;;-141.48;100.00;69781.59;5249549;28;20119;-61
2021/12/19 01:23:12;;;;;;;17.70;16.00;;;;;;;-141.48;100.00;69781.59;5249309;28;20024;-62
2021/12/19 01:25:43;;;;;;;20.98;18.33;;;;;;;-141.48;100.00;69781.59;5249236;28;20016;-62
2021/12/19 01:28:13;;;;;;;20.52;18.45;;;;;;;-141.48;100.00;69781.59;5249360;28;20553;-62
2021/12/19 01:30:44;;;;;;;20.83;18.70;;;;;;;-141.48;100.00;69781.59;5249181;28;20112;-63
2021/12/19 01:33:15;;;;;;;19.13;17.20;;;;;;;-141.48;100.00;69781.59;5248806;28;20020;-61
2021/12/19 01:35:45;;;;;;;17.73;15.93;;;;;;;-141.48;100.00;69781.59;5266891;28;20028;-61
2021/12/19 01:38:16;;;;;;;16.10;14.75;;;;;;;-141.48;100.00;69781.59;5268334;22;20043;-82
2021/12/19 01:40:47;;;;;;;20.58;18.65;;;;;;;-141.48;100.00;69781.59;5273382;28;20039;-83
2021/12/19 01:43:24;;;;;;;17.70;16.15;;;;;;;-141.48;100.00;69781.59;5274357;28;20024;-83
2021/12/19 01:45:55;;;;;;;21.27;19.20;;;;;;;-141.48;100.00;69781.59;5274849;28;20016;-82
2021/12/19 01:48:26;;;;;;;23.00;20.60;;;;;;;-141.48;100.00;69781.59;5274963;28;20086;-83
2021/12/19 01:50:56;;;;;;;20.45;18.23;;;;;;;-141.48;100.00;69781.59;5278037;28;20035;-83
2021/12/19 01:53:28;;;;;;;22.60;19.95;;;;;;;-141.48;100.00;69781.59;5277971;28;20016;-81
2021/12/19 01:55:59;;;;;;;22.10;19.92;;;;;;;-141.48;100.00;69781.59;5278392;28;20097;-81
2021/12/19 01:58:29;;;;;;;20.20;18.40;;;;;;;-141.48;100.00;69781.59;5278247;28;20024;-83
2021/12/19 02:01:00;;;;;;;22.83;20.38;;;;;;;-141.48;100.00;69781.59;5277919;28;20379;-83
2021/12/19 02:03:31;;;;;;;24.65;22.27;;;;;;;-141.48;100.00;69781.59;5277889;28;20612;-83
2021/12/19 02:06:02;;;;;;;39.85;28.00;;;;;;;-141.48;100.00;69781.59;5259914;28;20444;-81
2021/12/19 02:08:33;;;;;;;35.83;26.25;;;;;;;-141.48;100.00;69781.59;5278360;28;20085;-83
2021/12/19 02:11:04;;;;;;;31.80;28.10;;;;;;;-141.48;100.00;69781.59;5259927;28;20028;-81
2021/12/19 02:13:34;;;;;;;46.95;32.90;;;;;;;-141.48;100.00;69781.59;5278501;28;20027;-83
2021/12/19 02:16:04;;;;;;;48.92;29.95;;;;;;;-141.48;100.00;69781.59;5278667;28;20024;-82
2021/12/19 02:18:35;;;;;;;43.00;32.45;;;;;;;-141.48;100.00;69781.59;5279864;28;20028;-83
2021/12/19 02:21:05;;;;;;;41.05;28.88;;;;;;;-141.48;100.00;69781.59;5283274;28;20088;-82
2021/12/19 02:23:36;;;;;;;39.75;28.40;;;;;;;-141.48;100.00;69781.59;5288530;28;20051;-81
2021/12/19 02:26:06;;;;;;;39.10;28.55;;;;;;;-141.48;100.00;69781.59;5281759;28;20024;-83
2021/12/19 02:28:37;;;;;;;31.35;25.33;;;;;;;-141.48;100.00;69781.59;5278368;28;20045;-81
2021/12/19 02:31:07;;;;;;;40.78;27.20;;;;;;;-141.48;100.00;69781.59;5278164;28;20524;-82
2021/12/19 02:33:42;;;;;;;51.00;25.77;;;;;;;-141.48;100.00;69781.59;5259221;28;20024;-83
2021/12/19 02:49:42;;;;;;;27.23;21.98;;;;;;;-141.48;100.00;69781.59;5277819;28;20035;-82
2021/12/19 02:52:15;;;;;;;25.73;20.60;;;;;;;-141.48;100.00;69781.59;5277902;28;20485;-83
2021/12/19 02:57:22;;;;;;;24.20;18.83;;;;;;;-141.48;100.00;69781.59;5230618;28;20056;-92
2021/12/19 02:59:52;;;;;;;22.20;19.45;;;;;;;-141.48;100.00;69781.59;5231876;28;20052;-93
2021/12/19 03:02:23;;;;;;;20.00;18.00;;;;;;;-141.48;100.00;69781.59;5232717;28;20005;-93
2021/12/19 03:05:00;;;;;;;31.40;21.70;;;;;;;-141.48;100.00;69781.59;5232560;28;20081;-93
2021/12/19 03:07:31;;;;;;;19.10;17.05;;;;;;;-141.48;100.00;69781.59;5231839;28;20045;-93
2021/12/19 03:13:00;;;;;;;23.63;21.33;;;;;;;-141.48;100.00;69781.59;5232208;28;20021;-92
2021/12/19 03:18:20;;;;;;;28.50;22.23;;;;;;;-141.48;100.00;69781.59;5231131;28;20111;-94
2021/12/19 03:20:51;;;;;;;24.70;21.15;;;;;;;-141.48;100.00;69781.59;5232404;28;20006;-93
2021/12/19 03:23:22;;;;;;;24.85;19.23;;;;;;;-141.48;100.00;69781.59;5231053;28;20093;-92
2021/12/19 03:25:52;;;;;;;29.98;19.58;;;;;;;-141.48;100.00;69781.59;5231181;28;20032;-93
2021/12/19 03:28:25;;;;;;;20.75;16.85;;;;;;;-141.48;100.00;69781.59;5231809;28;20013;-93
2021/12/19 03:30:55;;;;;;;24.45;18.52;;;;;;;-141.48;100.00;69781.59;5231917;28;20049;-92
2021/12/19 03:33:26;;;;;;;24.27;16.42;;;;;;;-141.48;100.00;69781.59;5231803;28;20008;-92
2021/12/19 03:35:56;;;;;;;28.05;17.33;;;;;;;-141.48;100.00;69781.59;5232802;28;20014;-92
2021/12/19 03:38:30;;;;;;;22.80;18.65;;;;;;;-141.48;100.00;69781.59;5232547;28;20017;-92
2021/12/19 03:43:40;;;;;;;19.38;17.20;;;;;;;-141.48;100.00;69781.59;5233197;28;20041;-91
2021/12/19 03:46:11;;;;;;;26.48;18.95;;;;;;;-141.48;100.00;69781.59;5233071;28;20025;-92
2021/12/19 03:48:42;;;;;;;17.88;16.15;;;;;;;-141.48;100.00;69781.59;5232955;28;20010;-92
2021/12/19 03:51:12;;;;;;;17.33;15.35;;;;;;;-141.48;100.00;69781.59;5232740;28;20032;-94
2021/12/19 03:53:43;;;;;;;18.60;15.05;;;;;;;-141.48;100.00;69781.59;5232633;28;20017;-92
2021/12/19 03:56:13;;;;;;;18.13;16.40;;;;;;;-141.48;100.00;69781.59;5232682;28;20044;-92
2021/12/19 03:58:47;;;;;;;24.38;17.40;;;;;;;-141.48;100.00;69781.59;5232590;28;20021;-91
2021/12/19 04:01:18;;;;;;;22.88;16.92;;;;;;;-141.48;100.00;69781.59;5232059;28;20013;-93
2021/12/19 04:03:49;;;;;;;18.45;14.40;;;;;;;-141.48;100.00;69781.59;5230906;28;20001;-93
2021/12/19 04:06:19;;;;;;;21.35;15.10;;;;;;;-141.48;100.00;69781.59;5231188;28;20081;-93
2021/12/19 04:08:50;;;;;;;23.67;18.38;;;;;;;-141.48;100.00;69781.59;5230678;28;20042;-92
2021/12/19 04:11:24;;;;;;;21.38;17.00;;;;;;;-141.48;100.00;69781.59;5230714;28;20025;-92
2021/12/19 04:13:54;;;;;;;21.20;16.40;;;;;;;-141.48;100.00;69781.59;5229929;28;20021;-94
2021/12/19 04:16:25;;;;;;;15.82;13.68;;;;;;;-141.48;100.00;69781.59;5230071;28;20052;-94
2021/12/19 04:18:56;;;;;;;22.52;15.63;;;;;;;-141.48;100.00;69781.59;5230640;28;20005;-93
2021/12/19 04:21:27;;;;;;;17.50;15.25;;;;;;;-141.48;100.00;69781.59;5230326;28;20052;-92
2021/12/19 04:23:57;;;;;;;17.27;15.32;;;;;;;-141.48;100.00;69781.59;5229754;28;20022;-93
2021/12/19 04:26:28;;;;;;;18.25;15.98;;;;;;;-141.48;100.00;69781.59;5229858;28;20014;-94
2021/12/19 04:28:58;;;;;;;15.93;14.32;;;;;;;-141.48;100.00;69781.59;5229695;28;20032;-93
2021/12/19 04:31:29;;;;;;;21.08;18.63;;;;;;;-141.48;100.00;69781.59;5229148;28;20009;-93
2021/12/19 04:33:59;;;;;;;28.05;17.85;;;;;;;-141.48;100.00;69781.59;5226961;28;20033;-92
2021/12/19 04:36:35;;;;;;;19.77;14.65;;;;;;;-141.48;100.00;69781.59;5229733;28;20026;-93
2021/12/19 04:42:43;;;;;;;25.13;17.33;;;;;;;-141.48;100.00;69781.59;5229858;28;20040;-93
2021/12/19 05:01:16;;;;;;;23.45;16.67;;;;;;;-141.48;100.00;69781.59;5253655;28;20027;-93
2021/12/19 05:06:51;;;;;;;21.38;16.77;;;;;;;-141.48;100.00;69781.59;5253413;28;20022;-92
2021/12/19 05:15:01;;;;;;;21.17;17.17;;;;;;;-141.48;100.00;69781.59;5251177;28;20036;-92
2021/12/19 05:17:35;;;;;;;23.65;18.33;;;;;;;-141.48;100.00;69781.59;5233522;28;20025;-94
2021/12/19 05:20:16;;;;;;;22.70;17.63;;;;;;;-141.48;100.00;69781.59;5233368;28;20025;-93
2021/12/19 05:26:06;;;;;;;26.23;18.30;;;;;;;-141.48;100.00;69781.59;5255547;28;20431;-92
2021/12/19 05:28:39;;;;;;;27.38;17.08;;;;;;;-141.48;100.00;69781.59;5237709;28;20024;-92
2021/12/19 05:31:10;;;;;;;26.80;17.92;;;;;;;-141.48;100.00;69781.59;5236575;28;20021;-92
2021/12/19 05:33:45;;;;;;;23.35;15.65;;;;;;;-141.48;100.00;69781.59;5236756;28;20051;-92
2021/12/19 05:46:43;;;;;;;20.77;17.40;;;;;;;-141.48;100.00;69781.59;5253466;28;20012;-92
2021/12/19 05:49:14;;;;;;;28.15;18.33;;;;;;;-141.48;100.00;69781.59;5235375;28;20033;-92
2021/12/19 05:51:44;;;;;;;29.02;18.00;;;;;;;-141.48;100.00;69781.59;5235933;28;20012;-93
2021/12/19 05:54:15;;;;;;;21.27;15.63;;;;;;;-141.48;100.00;69781.59;5235858;28;20001;-93
2021/12/19 05:56:46;;;;;;;26.75;18.65;;;;;;;-141.48;100.00;69781.59;5235799;28;20029;-92
2021/12/19 05:59:17;;;;;;;20.83;12.30;;;;;;;-141.48;100.00;69781.59;5253569;28;20008;-93
2021/12/19 06:01:48;;;;;;;22.88;19.17;;;;;;;-141.48;100.00;69781.59;5253132;28;20016;-92
2021/12/19 06:04:21;;;;;;;28.65;17.13;;;;;;;-141.48;100.00;69781.59;5234247;28;20009;-93
2021/12/19 06:06:52;;;;;;;40.20;15.82;;;;;;;-141.48;100.00;69781.59;5252610;28;20058;-92
2021/12/19 06:09:25;;;;;;;26.75;17.80;;;;;;;-141.48;100.00;69781.59;5234558;28;20029;-93
2021/12/19 06:12:05;;;;;;;25.00;17.05;;;;;;;-141.48;100.00;69781.59;5252393;28;20029;-94
2021/12/19 06:14:36;;;;;;;29.67;19.90;;;;;;;-141.48;100.00;69781.59;5251314;28;20033;-93
2021/12/19 06:17:06;;;;;;;19.48;16.05;;;;;;;-141.48;100.00;69781.59;5234253;28;20029;-92
2021/12/19 06:19:36;;;;;;;31.08;18.00;;;;;;;-141.48;100.00;69781.59;5235007;28;20028;-93
2021/12/19 06:22:08;;;;;;;29.70;18.25;;;;;;;-141.48;100.00;69781.59;5233696;28;20009;-93
2021/12/19 06:24:38;;;;;;;28.92;18.92;;;;;;;-141.48;100.00;69781.59;5233687;28;20004;-93
2021/12/19 06:27:09;;;;;;;31.92;16.70;;;;;;;-141.48;100.00;69781.59;5252309;28;20052;-93
2021/12/19 06:29:39;;;;;;;20.02;17.00;;;;;;;-141.48;100.00;69781.59;5234163;28;20024;-93
2021/12/19 06:32:10;;;;;;;40.40;18.98;;;;;;;-141.48;100.00;69781.59;5233750;28;20029;-94
2021/12/19 06:34:41;;;;;;;29.23;18.75;;;;;;;-141.48;100.00;69781.59;5234108;28;20040;-93
2021/12/19 06:37:11;;;;;;;21.73;14.95;;;;;;;-141.48;100.00;69781.59;5232412;28;20021;-92
2021/12/19 06:39:42;;;;;;;21.60;16.52;;;;;;;-141.48;100.00;69781.59;5251344;28;20013;-93
2021/12/19 06:42:12;;;;;;;23.95;18.27;;;;;;;-141.48;100.00;69781.59;5234583;28;20402;-92
2021/12/19 06:44:43;;;;;;;21.15;17.00;;;;;;;-141.48;100.00;69781.59;5235927;28;20021;-94
2021/12/19 06:47:13;;;;;;;25.15;18.80;;;;;;;-141.48;100.00;69781.59;5234936;28;20025;-94
2021/12/19 06:49:44;;;;;;;20.73;17.27;;;;;;;-141.48;100.00;69781.59;5235004;28;20025;-95
2021/12/19 06:52:14;;;;;;;21.38;17.05;;;;;;;-141.48;100.00;69781.59;5233621;28;20028;-95
2021/12/19 06:54:45;;;;;;;20.63;15.93;;;;;;;-141.48;100.00;69781.59;5233210;28;20039;-91
2021/12/19 06:57:18;;;;;;;24.60;18.23;;;;;;;-141.48;100.00;69781.59;5252059;28;20036;-92
2021/12/19 06:59:48;;;;;;;18.33;16.70;;;;;;;-141.48;100.00;69781.59;5253222;28;20039;-93
2021/12/19 07:02:19;;;;;;;20.25;17.75;;;;;;;-141.48;100.00;69781.59;5235542;28;20077;-93
2021/12/19 07:04:49;;;;;;;30.80;19.05;;;;;;;-141.48;100.00;69781.59;5234575;28;20032;-95
2021/12/19 07:07:21;;;;;;;31.52;18.00;;;;;;;-141.48;100.00;69781.59;5252396;28;20025;-93
2021/12/19 07:09:52;;;;;;;21.85;19.17;;;;;;;-141.48;100.00;69781.59;5234324;28;20024;-93
2021/12/19 07:12:26;;;;;;;29.38;20.52;;;;;;;-141.48;100.00;69781.59;5234500;28;20021;-94
2021/12/19 07:14:58;;;;;;;24.58;21.63;;;;;;;-141.48;100.00;69781.59;5251732;28;20012;-93
2021/12/19 07:17:28;;;;;;;25.95;21.73;;;;;;;-141.48;100.00;69781.59;5251613;28;20057;-92
2021/12/19 07:19:59;;;;;;;24.23;20.52;;;;;;;-141.48;100.00;69781.59;5232293;28;20013;-93
2021/12/19 07:22:29;;;;;;;22.83;19.95;;;;;;;-141.48;100.00;69781.59;5251062;28;20024;-92
2021/12/19 07:25:00;;;;;;;24.17;20.23;;;;;;;-141.48;100.00;69781.59;5250373;28;20059;-93
2021/12/19 07:27:30;;;;;;;27.95;21.30;;;;;;;-141.48;100.00;69781.59;5250564;28;20052;-93
2021/12/19 07:30:01;;;;;;;23.00;19.48;;;;;;;-141.48;100.00;69781.59;5249480;28;20020;-93
2021/12/19 07:32:33;;;;;;;19.33;17.40;;;;;;;-141.48;100.00;69781.59;5251503;28;20005;-94
2021/12/19 07:35:07;;;;;;;24.20;21.70;;;;;;;-141.48;100.00;69781.59;5234508;28;20017;-93
2021/12/19 07:37:37;;;;;;;25.42;19.45;;;;;;;-141.48;100.00;69781.59;5252336;28;20046;-93
2021/12/19 07:40:15;;;;;;;22.50;19.00;;;;;;;-141.48;100.00;69781.59;5234734;28;20080;-93
2021/12/19 07:42:46;;;;;;;29.17;19.65;;;;;;;-141.48;100.00;69781.59;5235303;28;20001;-93
2021/12/19 07:45:17;;;;;;;22.10;20.08;;;;;;;-141.48;100.00;69781.59;5234160;28;20028;-93
2021/12/19 07:47:47;;;;;;;24.38;21.90;;;;;;;-141.48;100.00;69781.59;5251674;28;20021;-94
2021/12/19 07:50:22;;;;;;;26.45;22.73;;;;;;;-141.48;100.00;69781.59;5252572;28;20032;-92
2021/12/19 07:52:53;;;;;;;29.35;24.27;;;;;;;-141.48;100.00;69781.59;5250877;28;20025;-93
2021/12/19 07:55:25;;;;;;;25.25;22.30;;;;;;;-141.48;100.00;69781.59;5263688;22;20021;-62
2021/12/19 07:57:55;;;;;;;24.30;21.70;;;;;;;-141.48;100.00;69781.59;5253918;28;20423;-62
2021/12/19 08:00:26;;;;;;;21.92;19.15;;;;;;;-141.48;100.00;69781.59;5246335;28;20041;-62
2021/12/19 08:02:57;;;;;;;24.52;18.42;;;;;;;-141.48;100.00;69781.59;5233332;28;20020;-60
2021/12/19 08:05:27;;;;;;;19.33;16.20;;;;;;;-141.48;100.00;69781.59;5251074;28;20494;-61
2021/12/19 08:08:02;;;;;;;18.15;16.40;;;;;;;-141.48;100.00;69781.59;5233454;28;20025;-62
2021/12/19 08:13:06;;;;;;;19.20;16.92;;;;;;;-141.48;100.00;69781.59;5251003;28;20381;-62
2021/12/19 08:15:38;;;;;;;22.45;20.25;;;;;;;-141.48;100.00;69781.59;5250301;28;20511;-62
2021/12/19 08:18:08;;;;;;;20.90;17.15;;;;;;;-141.48;100.00;69781.59;5232765;28;20020;-62
2021/12/19 08:20:39;;;;;;;18.13;16.48;;;;;;;-141.48;100.00;69781.59;5232341;28;20040;-62
2021/12/19 08:23:09;;;;;;;18.63;16.75;;;;;;;-141.48;100.00;69781.59;5232686;28;20035;-67
2021/12/19 08:25:40;;;;;;;21.83;18.92;;;;;;;-141.48;100.00;69781.59;5249537;28;20051;-64
2021/12/19 08:28:10;;;;;;;19.80;18.10;;;;;;;-141.48;100.00;69781.59;5232353;28;20120;-62
2021/12/19 08:30:41;;;;;;;20.45;18.38;;;;;;;-141.48;100.00;69781.59;5232346;28;20107;-62
2021/12/19 08:33:11;;;;;;;22.60;20.20;;;;;;;-141.48;100.00;69781.59;5232447;28;20017;-62
2021/12/19 08:35:42;;;;;;;21.98;19.95;;;;;;;-141.48;100.00;69781.59;5231784;28;20107;-61
2021/12/19 08:38:13;;;;;;;20.83;18.73;;;;;;;-141.48;100.00;69781.59;5232220;28;20021;-60
2021/12/19 08:40:45;;;;;;;20.38;18.35;;;;;;;-141.48;100.00;69781.59;5232321;28;20568;-62
2021/12/19 08:43:16;;;;;;;16.83;15.18;;;;;;;-141.48;100.00;69781.59;5232117;28;20403;-61
2021/12/19 08:45:47;;;;;;;20.52;16.55;;;;;;;-141.48;100.00;69781.59;5231539;28;20024;-64
2021/12/19 08:48:18;;;;;;;18.90;15.27;;;;;;;-141.48;100.00;69781.59;5230861;28;20039;-61
2021/12/19 08:50:50;;;;;;;21.23;19.08;;;;;;;-141.48;100.00;69781.59;5231322;28;20108;-62
2021/12/19 08:53:21;;;;;;;21.15;18.23;;;;;;;-141.48;100.00;69781.59;5231078;28;20020;-62
2021/12/19 08:55:51;;;;;;;28.08;17.70;;;;;;;-141.48;100.00;69781.59;5231972;28;20065;-65
2021/12/19 08:58:22;;;;;;;17.15;15.75;;;;;;;-141.48;100.00;69781.59;5231847;28;20374;-63
2021/12/19 09:00:52;;;;;;;20.40;18.52;;;;;;;-141.48;100.00;69781.59;5235702;28;20499;-63
2021/12/19 09:03:23;;;;;;;19.33;17.40;;;;;;;-141.48;100.00;69781.59;5253867;28;20020;-68
2021/12/19 09:05:53;;;;;;;31.38;17.27;;;;;;;-141.48;100.00;69781.59;5236385;28;20078;-63
2021/12/19 09:08:24;;;;;;;22.48;18.83;;;;;;;-141.48;100.00;69781.59;5253642;28;20032;-63
2021/12/19 09:10:56;;;;;;;22.08;18.90;;;;;;;-141.48;100.00;69781.59;5235923;28;20449;-63
2021/12/19 09:13:27;;;;;;;18.13;16.52;;;;;;;-141.48;100.00;69781.59;5236044;28;20021;-62
2021/12/19 09:15:57;;;;;;;23.45;16.00;;;;;;;-141.48;100.00;69781.59;5236505;28;20036;-63
2021/12/19 09:18:31;;;;;;;23.15;18.30;;;;;;;-141.48;100.00;69781.59;5236757;28;20024;-63
2021/12/19 09:21:01;;;;;;;22.77;18.50;;;;;;;-141.48;100.00;69781.59;5236702;28;20092;-63
2021/12/19 09:23:33;;;;;;;25.67;17.92;;;;;;;-141.48;100.00;69781.59;5236020;28;20182;-64
2021/12/19 09:26:05;;;;;;;22.30;17.50;;;;;;;-141.48;100.00;69781.59;5236187;28;20040;-62
2021/12/19 09:28:35;;;;;;;16.70;15.13;;;;;;;-141.48;100.00;69781.59;5236326;28;20039;-63
2021/12/19 09:31:06;;;;;;;16.83;15.32;;;;;;;-141.48;100.00;69781.59;5236840;28;20028;-62
2021/12/19 09:33:36;;;;;;;16.95;15.32;;;;;;;-141.48;100.00;69781.59;5236501;28;20020;-63
2021/12/19 09:36:07;;;;;;;19.58;16.83;;;;;;;-141.48;100.00;69781.59;5236837;28;20024;-63
2021/12/19 09:38:37;;;;;;;18.98;16.98;;;;;;;-141.48;100.00;69781.59;5236323;28;20082;-65
2021/12/19 09:41:27;;;;;;;16.63;15.13;;;;;;;-141.48;100.00;69781.59;5236141;28;20032;-63
2021/12/19 09:44:14;;;;;;;16.02;14.63;;;;;;;-141.48;100.00;69781.59;5227362;28;20052;-63
2021/12/19 09:46:48;;;;;;;18.42;16.92;;;;;;;-141.48;100.00;69781.59;5225989;28;20032;-63
2021/12/19 09:49:20;;;;;;;19.58;17.30;;;;;;;-141.48;100.00;69781.59;5214946;28;20086;-64
2021/12/19 09:51:52;;;;;;;15.55;14.25;;;;;;;-141.48;100.00;69781.59;5213808;28;20021;-61
2021/12/19 09:54:23;;;;;;;16.23;14.80;;;;;;;-141.48;100.00;69781.59;5213656;28;20123;-63
2021/12/19 09:56:53;;;;;;;18.70;16.73;;;;;;;-141.48;100.00;69781.59;5215579;28;20472;-63
2021/12/19 09:59:24;;;;;;;15.95;14.48;;;;;;;-141.48;100.00;69781.59;5233115;28;20021;-62
2021/12/19 10:01:55;;;;;;;17.58;14.35;;;;;;;-141.48;100.00;69781.59;5232380;28;20109;-63
2021/12/19 10:04:33;;;;;;;16.30;14.80;;;;;;;-141.48;100.00;69781.59;5213919;28;20032;-63
2021/12/19 10:07:13;;;;;;;16.75;15.10;;;;;;;-141.48;100.00;69781.59;5214492;28;20025;-63
2021/12/19 10:09:54;;;;;;;18.08;15.40;;;;;;;-141.48;100.00;69781.59;5212635;28;20205;-62
2021/12/19 10:15:12;;;;;;;16.92;15.20;;;;;;;-141.48;100.00;69781.59;5229851;28;20396;-62
2021/12/19 10:17:43;;;;;;;16.50;15.07;;;;;;;-141.48;100.00;69781.59;5230256;28;20020;-62
2021/12/19 10:20:16;;;;;;;16.40;14.85;;;;;;;-141.48;100.00;69781.59;5230505;28;20492;-60
2021/12/19 10:22:47;;;;;;;19.25;17.35;;;;;;;-141.48;100.00;69781.59;5229969;28;20512;-60
2021/12/19 10:25:22;;;;;;;15.85;14.50;;;;;;;-141.48;100.00;69781.59;5228884;28;20032;-62
2021/12/19 10:28:09;;;;;;;15.52;14.30;;;;;;;-141.48;100.00;69781.59;5229744;28;20071;-61
2021/12/19 10:30:46;;;;;;;14.73;13.52;;;;;;;-141.48;100.00;69781.59;5212596;28;20029;-62
2021/12/19 10:33:24;;;;;;;15.23;13.60;;;;;;;-141.48;100.00;69781.59;5213354;28;20443;-62
2021/12/19 10:35:59;;;;;;;15.60;13.48;;;;;;;-141.48;100.00;69781.59;5212367;28;20341;-62
2021/12/19 10:38:45;;;;;;;16.70;15.00;;;;;;;-141.48;100.00;69781.59;5229682;28;20520;-60
2021/12/19 10:41:33;;;;;;;17.80;14.75;;;;;;;-141.48;100.00;69781.59;5212700;28;20536;-61
2021/12/19 10:44:07;;;;;;;14.75;13.35;;;;;;;-141.48;100.00;69781.59;5211793;28;20033;-61
2021/12/19 10:46:40;;;;;;;15.45;13.93;;;;;;;-141.48;100.00;69781.59;5212410;28;20021;-61
2021/12/19 10:49:30;;;;;;;14.52;13.13;;;;;;;-141.48;100.00;69781.59;5212249;28;20032;-60
2021/12/19 10:52:04;;;;;;;14.65;13.43;;;;;;;-141.48;100.00;69781.59;5231258;28;20035;-62
2021/12/19 10:54:35;;;;;;;15.30;13.88;;;;;;;-141.48;100.00;69781.59;5219430;28;20020;-62
2021/12/19 10:57:07;;;;;;;15.43;13.13;;;;;;;-141.48;100.00;69781.59;5251609;28;20541;-62
2021/12/19 10:59:38;;;;;;;18.08;16.55;;;;;;;-141.48;100.00;69781.59;5234175;28;20028;-63
2021/12/19 11:02:09;;;;;;;15.40;14.00;;;;;;;-141.48;100.00;69781.59;5249760;28;20076;-62
2021/12/19 11:04:39;;;;;;;20.77;18.77;;;;;;;-141.48;100.00;69781.59;5230462;28;20024;-63
2021/12/19 11:07:10;;;;;;;19.80;17.80;;;;;;;-141.48;100.00;69781.59;5230931;28;20039;-63
2021/12/19 11:09:41;;;;;;;19.13;17.15;;;;;;;-141.48;100.00;69781.59;5229960;28;20095;-63
2021/12/19 11:12:11;;;;;;;19.45;17.42;;;;;;;-141.48;100.00;69781.59;5248366;28;20423;-65
2021/12/19 11:14:48;;;;;;;19.58;17.83;;;;;;;-141.48;100.00;69781.59;5248008;28;20025;-64
2021/12/19 11:17:26;;;;;;;19.27;17.30;;;;;;;-141.48;100.00;69781.59;5231537;28;20035;-63
2021/12/19 11:19:57;;;;;;;19.77;17.13;;;;;;;-141.48;100.00;69781.59;5240519;28;20085;-63
2021/12/19 11:22:28;;;;;;;19.52;17.42;;;;;;;-141.48;100.00;69781.59;5230822;28;20020;-63
2021/12/19 11:25:04;;;;;;;19.42;17.83;;;;;;;-141.48;100.00;69781.59;5230969;28;20059;-63
2021/12/19 11:27:36;;;;;;;20.55;16.30;;;;;;;-141.48;100.00;69781.59;5231502;28;20121;-62
2021/12/19 11:30:07;;;;;;;20.15;17.80;;;;;;;-141.48;100.00;69781.59;5229064;28;20028;-61
2021/12/19 11:32:59;;;;;;;17.77;16.05;;;;;;;-141.48;100.00;69781.59;5231049;28;20467;-63
2021/12/19 11:35:32;;;;;;;20.35;18.23;;;;;;;-141.48;100.00;69781.59;5220403;28;20020;-65
2021/12/19 11:38:08;;;;;;;21.90;20.00;;;;;;;-141.48;100.00;69781.59;5224555;28;20408;-61
2021/12/19 11:40:39;;;;;;;22.58;20.27;;;;;;;-141.48;100.00;69781.59;5230529;28;20480;-63
2021/12/19 11:43:12;;;;;;;23.17;20.88;;;;;;;-141.48;100.00;69781.59;5230413;28;20034;-63
2021/12/19 11:45:51;;;;;;;20.42;18.23;;;;;;;-141.48;100.00;69781.59;5230256;28;20090;-63
2021/12/19 11:48:28;;;;;;;25.23;22.27;;;;;;;-141.48;100.00;69781.59;5231059;28;20020;-63
2021/12/19 11:51:04;;;;;;;23.75;21.42;;;;;;;-141.48;100.00;69781.59;5231033;28;20115;-67
2021/12/19 11:53:41;;;;;;;26.52;22.83;;;;;;;-141.48;100.00;69781.59;5230906;28;20027;-63
2021/12/19 11:56:16;;;;;;;27.92;25.08;;;;;;;-141.48;100.00;69781.59;5230385;28;20032;-63
2021/12/19 11:58:52;;;;;;;28.85;24.30;;;;;;;-141.48;100.00;69781.59;5230969;28;20094;-63
2021/12/19 12:01:28;;;;;;;28.98;25.30;;;;;;;-141.48;100.00;69781.59;5231146;28;20043;-63
2021/12/19 12:04:11;;;;;;;33.67;27.77;;;;;;;-141.48;100.00;69781.59;5230880;28;20107;-66
2021/12/19 12:06:52;;;;;;;30.27;27.38;;;;;;;-141.48;100.00;69781.59;5230764;28;20119;-64
2021/12/19 12:09:27;;;;;;;31.38;28.23;;;;;;;-141.48;100.00;69781.59;5230909;28;20028;-63
2021/12/19 12:12:01;;;;;;;26.17;23.48;;;;;;;-141.48;100.00;69781.59;5231004;28;20047;-63
2021/12/19 12:14:35;;;;;;;31.80;26.33;;;;;;;-141.48;100.00;69781.59;5230107;28;20107;-63
2021/12/19 12:17:20;;;;;;;26.88;23.92;;;;;;;-141.48;100.00;69781.59;5210405;28;20028;-64
2021/12/19 12:19:55;;;;;;;26.55;23.80;;;;;;;-141.48;100.00;69781.59;5209599;28;20403;-64
2021/12/19 12:22:36;;;;;;;27.63;20.58;;;;;;;-141.48;100.00;69781.59;5209378;28;20043;-64
2021/12/19 12:25:15;;;;;;;20.73;18.67;;;;;;;-141.48;100.00;69781.59;5209215;28;20025;-62
2021/12/19 12:27:56;;;;;;;24.10;21.73;;;;;;;-141.48;100.00;69781.59;5210642;28;20408;-63
2021/12/19 12:30:28;;;;;;;16.50;14.90;;;;;;;-141.48;100.00;69781.59;5210071;28;20178;-64
2021/12/19 12:33:01;;;;;;;14.40;13.10;;;;;;;-141.48;100.00;69781.59;5210685;28;20024;-62
2021/12/19 12:35:35;;;;;;;17.67;15.95;;;;;;;-141.48;100.00;69781.59;5210860;28;20024;-60
2021/12/19 12:38:08;;;;;;;15.80;14.45;;;;;;;-141.48;100.00;69781.59;5211252;28;20025;-63